sensor_id;sensor_type;location;lat;lon;timestamp;pressure;altitude;pressure_sealevel;temperature;humidity
58070;BME280;43863;52.256;21.048;2022-09-13T00:01:04;100373.84;;;13.52;71.66
58070;BME280;43863;52.256;21.048;2022-09-13T00:03:32;100371.53;;;13.49;71.93
58070;BME280;43863;52.256;21.048;2022-09-13T00:06:11;100370.94;;;13.47;71.92
58070;BME280;43863;52.256;21.048;2022-09-13T00:08:39;100380.53;;;13.41;71.98
58070;BME280;43863;52.256;21.048;2022-09-13T00:11:14;100375.38;;;13.39;72.11
58070;BME280;43863;52.256;21.048;2022-09-13T00:13:42;100369.59;;;13.36;72.18
58070;BME280;43863;52.256;21.048;2022-09-13T00:16:12;100365.47;;;13.33;72.08
58070;BME280;43863;52.256;21.048;2022-09-13T00:18:40;100366.91;;;13.29;72.06
58070;BME280;43863;52.256;21.048;2022-09-13T00:21:10;100365.44;;;13.27;72.10
58070;BME280;43863;52.256;21.048;2022-09-13T00:23:39;100363.13;;;13.24;72.03
58070;BME280;43863;52.256;21.048;2022-09-13T00:26:10;100370.50;;;13.21;72.06
58070;BME280;43863;52.256;21.048;2022-09-13T00:28:38;100367.59;;;13.16;72.06
58070;BME280;43863;52.256;21.048;2022-09-13T00:31:08;100366.75;;;13.16;71.97
58070;BME280;43863;52.256;21.048;2022-09-13T00:33:37;100373.50;;;13.12;71.91
58070;BME280;43863;52.256;21.048;2022-09-13T00:36:08;100374.06;;;13.07;71.93
58070;BME280;43863;52.256;21.048;2022-09-13T00:38:38;100368.13;;;13.05;71.96
58070;BME280;43863;52.256;21.048;2022-09-13T00:41:09;100369.50;;;13.01;71.87
58070;BME280;43863;52.256;21.048;2022-09-13T00:43:58;100368.06;;;12.98;71.92
58070;BME280;43863;52.256;21.048;2022-09-13T00:46:36;100365.78;;;12.95;72.00
58070;BME280;43863;52.256;21.048;2022-09-13T00:51:49;100368.19;;;12.90;72.16
58070;BME280;43863;52.256;21.048;2022-09-13T00:54:21;100370.41;;;12.87;72.16
58070;BME280;43863;52.256;21.048;2022-09-13T00:56:54;100369.78;;;12.85;72.18
58070;BME280;43863;52.256;21.048;2022-09-13T00:59:36;100362.97;;;12.82;72.16
58070;BME280;43863;52.256;21.048;2022-09-13T01:02:06;100366.03;;;12.79;72.29
58070;BME280;43863;52.256;21.048;2022-09-13T01:04:35;100369.72;;;12.78;72.30
58070;BME280;43863;52.256;21.048;2022-09-13T01:07:06;100368.88;;;12.78;72.23
58070;BME280;43863;52.256;21.048;2022-09-13T01:09:37;100368.25;;;12.75;72.23
58070;BME280;43863;52.256;21.048;2022-09-13T01:12:07;100358.53;;;12.68;72.12
58070;BME280;43863;52.256;21.048;2022-09-13T01:14:41;100360.94;;;12.63;72.17
58070;BME280;43863;52.256;21.048;2022-09-13T01:17:10;100369.78;;;12.63;72.30
58070;BME280;43863;52.256;21.048;2022-09-13T01:19:38;100365.44;;;12.62;72.45
58070;BME280;43863;52.256;21.048;2022-09-13T01:31:28;100365.94;;;12.51;72.27
58070;BME280;43863;52.256;21.048;2022-09-13T01:34:15;100362.00;;;12.47;72.15
58070;BME280;43863;52.256;21.048;2022-09-13T01:36:55;100360.53;;;12.44;72.25
58070;BME280;43863;52.256;21.048;2022-09-13T01:40:10;100359.06;;;12.42;72.31
58070;BME280;43863;52.256;21.048;2022-09-13T01:51:24;100347.25;;;12.29;72.39
58070;BME280;43863;52.256;21.048;2022-09-13T01:54:19;100349.09;;;12.29;72.32
58070;BME280;43863;52.256;21.048;2022-09-13T02:05:34;100349.41;;;12.19;72.39
58070;BME280;43863;52.256;21.048;2022-09-13T02:08:33;100346.91;;;12.18;72.56
58070;BME280;43863;52.256;21.048;2022-09-13T02:11:05;100350.59;;;12.17;72.34
58070;BME280;43863;52.256;21.048;2022-09-13T02:13:39;100343.63;;;12.16;72.39
58070;BME280;43863;52.256;21.048;2022-09-13T02:17:11;100352.25;;;12.18;72.23
58070;BME280;43863;52.256;21.048;2022-09-13T02:19:23;100338.47;;;12.14;72.21
58070;BME280;43863;52.256;21.048;2022-09-13T02:21:56;100329.69;;;12.14;71.92
58070;BME280;43863;52.256;21.048;2022-09-13T02:24:30;100335.81;;;12.14;72.12
58070;BME280;43863;52.256;21.048;2022-09-13T02:27:03;100326.19;;;12.13;71.93
58070;BME280;43863;52.256;21.048;2022-09-13T02:29:33;100327.56;;;12.09;71.82
58070;BME280;43863;52.256;21.048;2022-09-13T02:34:39;100327.31;;;12.04;71.91
58070;BME280;43863;52.256;21.048;2022-09-13T02:37:09;100319.72;;;12.01;71.83
58070;BME280;43863;52.256;21.048;2022-09-13T02:39:44;100317.22;;;11.99;71.83
58070;BME280;43863;52.256;21.048;2022-09-13T02:42:20;100319.22;;;11.97;71.78
58070;BME280;43863;52.256;21.048;2022-09-13T02:44:51;100317.97;;;11.93;71.65
58070;BME280;43863;52.256;21.048;2022-09-13T02:50:31;100315.03;;;11.88;71.64
58070;BME280;43863;52.256;21.048;2022-09-13T02:55:54;100317.56;;;11.81;71.75
58070;BME280;43863;52.256;21.048;2022-09-13T02:58:36;100307.47;;;11.77;71.72
58070;BME280;43863;52.256;21.048;2022-09-13T03:01:09;100318.50;;;11.74;71.95
58070;BME280;43863;52.256;21.048;2022-09-13T03:03:37;100314.38;;;11.71;71.72
58070;BME280;43863;52.256;21.048;2022-09-13T03:06:05;100310.88;;;11.71;71.65
58070;BME280;43863;52.256;21.048;2022-09-13T03:08:33;100304.94;;;11.69;71.45
58070;BME280;43863;52.256;21.048;2022-09-13T03:11:13;100304.94;;;11.69;71.53
58070;BME280;43863;52.256;21.048;2022-09-13T03:20:05;100298.78;;;11.53;71.45
58070;BME280;43863;52.256;21.048;2022-09-13T03:25:37;100295.41;;;11.45;71.51
58070;BME280;43863;52.256;21.048;2022-09-13T03:31:05;100290.78;;;11.38;71.77
58070;BME280;43863;52.256;21.048;2022-09-13T03:33:46;100295.66;;;11.35;71.87
58070;BME280;43863;52.256;21.048;2022-09-13T03:36:25;100294.00;;;11.34;71.83
58070;BME280;43863;52.256;21.048;2022-09-13T03:41:49;100288.25;;;11.30;72.25
58070;BME280;43863;52.256;21.048;2022-09-13T03:44:19;100283.53;;;11.32;72.34
58070;BME280;43863;52.256;21.048;2022-09-13T03:46:51;100277.25;;;11.33;72.51
58070;BME280;43863;52.256;21.048;2022-09-13T03:49:22;100286.03;;;11.34;72.64
58070;BME280;43863;52.256;21.048;2022-09-13T03:51:51;100287.88;;;11.33;72.67
58070;BME280;43863;52.256;21.048;2022-09-13T03:54:28;100277.88;;;11.35;72.77
58070;BME280;43863;52.256;21.048;2022-09-13T03:57:09;100279.69;;;11.35;73.09
58070;BME280;43863;52.256;21.048;2022-09-13T03:59:43;100277.59;;;11.30;73.13
58070;BME280;43863;52.256;21.048;2022-09-13T04:02:14;100277.59;;;11.30;72.95
58070;BME280;43863;52.256;21.048;2022-09-13T04:04:42;100270.63;;;11.29;73.01
58070;BME280;43863;52.256;21.048;2022-09-13T04:07:14;100275.13;;;11.29;73.01
58070;BME280;43863;52.256;21.048;2022-09-13T04:09:42;100276.13;;;11.28;73.01
58070;BME280;43863;52.256;21.048;2022-09-13T04:12:11;100268.97;;;11.28;72.86
58070;BME280;43863;52.256;21.048;2022-09-13T04:14:41;100261.81;;;11.29;72.61
58070;BME280;43863;52.256;21.048;2022-09-13T04:17:10;100267.34;;;11.27;72.50
58070;BME280;43863;52.256;21.048;2022-09-13T04:19:40;100264.84;;;11.26;72.41
58070;BME280;43863;52.256;21.048;2022-09-13T04:22:07;100272.00;;;11.25;72.16
58070;BME280;43863;52.256;21.048;2022-09-13T04:24:35;100266.69;;;11.25;71.91
58070;BME280;43863;52.256;21.048;2022-09-13T04:27:03;100270.38;;;11.24;71.72
58070;BME280;43863;52.256;21.048;2022-09-13T04:29:32;100265.88;;;11.25;71.78
58070;BME280;43863;52.256;21.048;2022-09-13T04:32:00;100276.66;;;11.23;71.56
58070;BME280;43863;52.256;21.048;2022-09-13T04:34:29;100267.06;;;11.22;71.56
58070;BME280;43863;52.256;21.048;2022-09-13T04:36:56;100271.19;;;11.25;71.60
58070;BME280;43863;52.256;21.048;2022-09-13T04:39:25;100266.31;;;11.28;71.45
58070;BME280;43863;52.256;21.048;2022-09-13T04:41:53;100272.09;;;11.32;71.65
58070;BME280;43863;52.256;21.048;2022-09-13T04:44:22;100265.78;;;11.33;71.46
58070;BME280;43863;52.256;21.048;2022-09-13T04:46:51;100273.41;;;11.36;71.26
58070;BME280;43863;52.256;21.048;2022-09-13T04:49:18;100278.97;;;11.41;71.24
58070;BME280;43863;52.256;21.048;2022-09-13T04:51:50;100271.25;;;11.46;71.04
58070;BME280;43863;52.256;21.048;2022-09-13T04:54:18;100265.56;;;11.49;70.70
58070;BME280;43863;52.256;21.048;2022-09-13T04:56:45;100270.53;;;11.52;70.52
58070;BME280;43863;52.256;21.048;2022-09-13T04:59:13;100271.78;;;11.56;70.59
58070;BME280;43863;52.256;21.048;2022-09-13T05:01:41;100267.78;;;11.60;70.59
58070;BME280;43863;52.256;21.048;2022-09-13T05:04:09;100267.41;;;11.64;70.45
58070;BME280;43863;52.256;21.048;2022-09-13T05:06:37;100279.53;;;11.66;70.41
58070;BME280;43863;52.256;21.048;2022-09-13T05:09:05;100272.81;;;11.70;70.24
58070;BME280;43863;52.256;21.048;2022-09-13T05:11:33;100276.13;;;11.72;70.15
58070;BME280;43863;52.256;21.048;2022-09-13T05:14:02;100273.91;;;11.76;70.23
58070;BME280;43863;52.256;21.048;2022-09-13T05:16:31;100275.81;;;11.82;70.39
58070;BME280;43863;52.256;21.048;2022-09-13T05:19:00;100272.97;;;11.83;70.00
58070;BME280;43863;52.256;21.048;2022-09-13T05:21:29;100266.75;;;11.91;70.11
58070;BME280;43863;52.256;21.048;2022-09-13T05:23:57;100267.19;;;11.95;69.93
58070;BME280;43863;52.256;21.048;2022-09-13T05:26:27;100266.63;;;11.99;69.87
58070;BME280;43863;52.256;21.048;2022-09-13T05:28:59;100273.03;;;12.05;69.93
58070;BME280;43863;52.256;21.048;2022-09-13T05:31:35;100267.13;;;12.10;69.90
58070;BME280;43863;52.256;21.048;2022-09-13T05:34:06;100275.34;;;12.08;69.86
58070;BME280;43863;52.256;21.048;2022-09-13T05:36:35;100275.59;;;12.13;69.82
58070;BME280;43863;52.256;21.048;2022-09-13T05:39:05;100272.63;;;12.23;69.98
58070;BME280;43863;52.256;21.048;2022-09-13T05:41:54;100270.28;;;12.35;69.92
58070;BME280;43863;52.256;21.048;2022-09-13T05:44:22;100265.91;;;12.48;69.67
58070;BME280;43863;52.256;21.048;2022-09-13T05:46:53;100274.84;;;12.62;69.50
58070;BME280;43863;52.256;21.048;2022-09-13T05:49:22;100270.19;;;12.71;69.14
58070;BME280;43863;52.256;21.048;2022-09-13T05:51:50;100262.06;;;12.79;69.23
58070;BME280;43863;52.256;21.048;2022-09-13T05:54:21;100268.50;;;12.91;69.25
58070;BME280;43863;52.256;21.048;2022-09-13T05:56:49;100254.22;;;12.99;69.08
58070;BME280;43863;52.256;21.048;2022-09-13T05:59:19;100255.50;;;13.10;68.99
58070;BME280;43863;52.256;21.048;2022-09-13T06:01:46;100243.91;;;13.24;68.82
58070;BME280;43863;52.256;21.048;2022-09-13T06:04:15;100237.66;;;13.38;68.46
58070;BME280;43863;52.256;21.048;2022-09-13T06:06:46;100242.44;;;13.50;68.24
58070;BME280;43863;52.256;21.048;2022-09-13T06:09:13;100237.13;;;13.56;67.93
58070;BME280;43863;52.256;21.048;2022-09-13T06:11:44;100243.53;;;13.69;67.64
58070;BME280;43863;52.256;21.048;2022-09-13T06:14:12;100244.00;;;13.79;67.27
58070;BME280;43863;52.256;21.048;2022-09-13T06:16:39;100242.59;;;13.89;67.24
58070;BME280;43863;52.256;21.048;2022-09-13T06:19:07;100244.50;;;14.02;66.59
58070;BME280;43863;52.256;21.048;2022-09-13T06:21:35;100245.13;;;14.11;66.36
58070;BME280;43863;52.256;21.048;2022-09-13T06:24:03;100242.06;;;14.21;66.31
58070;BME280;43863;52.256;21.048;2022-09-13T06:26:30;100244.34;;;14.30;65.99
58070;BME280;43863;52.256;21.048;2022-09-13T06:28:58;100239.44;;;14.41;65.99
58070;BME280;43863;52.256;21.048;2022-09-13T06:31:27;100240.69;;;14.51;65.80
58070;BME280;43863;52.256;21.048;2022-09-13T06:33:59;100242.34;;;14.52;65.76
58070;BME280;43863;52.256;21.048;2022-09-13T06:36:29;100247.69;;;14.59;65.65
58070;BME280;43863;52.256;21.048;2022-09-13T06:38:58;100243.56;;;14.70;65.80
58070;BME280;43863;52.256;21.048;2022-09-13T06:41:29;100243.97;;;14.80;65.64
58070;BME280;43863;52.256;21.048;2022-09-13T06:43:58;100242.53;;;14.84;65.32
58070;BME280;43863;52.256;21.048;2022-09-13T06:46:28;100247.03;;;14.90;65.22
58070;BME280;43863;52.256;21.048;2022-09-13T06:49:05;100249.50;;;15.05;65.03
58070;BME280;43863;52.256;21.048;2022-09-13T06:51:34;100245.56;;;15.14;64.97
58070;BME280;43863;52.256;21.048;2022-09-13T06:54:02;100233.00;;;15.21;64.84
58070;BME280;43863;52.256;21.048;2022-09-13T06:56:33;100247.19;;;15.35;64.83
58070;BME280;43863;52.256;21.048;2022-09-13T06:59:04;100236.84;;;15.45;64.83
58070;BME280;43863;52.256;21.048;2022-09-13T07:04:05;100240.50;;;15.58;64.58
58070;BME280;43863;52.256;21.048;2022-09-13T07:06:40;100238.03;;;15.69;64.47
58070;BME280;43863;52.256;21.048;2022-09-13T07:09:14;100236.53;;;15.80;64.12
58070;BME280;43863;52.256;21.048;2022-09-13T07:11:43;100239.13;;;15.93;64.05
58070;BME280;43863;52.256;21.048;2022-09-13T07:14:16;100232.91;;;16.00;63.60
58070;BME280;43863;52.256;21.048;2022-09-13T07:16:44;100236.84;;;16.04;63.36
58070;BME280;43863;52.256;21.048;2022-09-13T07:19:17;100231.44;;;16.10;63.18
58070;BME280;43863;52.256;21.048;2022-09-13T07:21:49;100228.25;;;16.20;63.09
58070;BME280;43863;52.256;21.048;2022-09-13T07:24:17;100230.50;;;16.23;63.10
58070;BME280;43863;52.256;21.048;2022-09-13T07:26:46;100234.41;;;16.27;62.92
58070;BME280;43863;52.256;21.048;2022-09-13T07:29:17;100230.88;;;16.33;62.46
58070;BME280;43863;52.256;21.048;2022-09-13T07:31:47;100230.19;;;16.45;62.23
58070;BME280;43863;52.256;21.048;2022-09-13T07:34:21;100232.53;;;16.59;62.35
58070;BME280;43863;52.256;21.048;2022-09-13T07:36:50;100227.44;;;16.76;61.96
58070;BME280;43863;52.256;21.048;2022-09-13T07:39:19;100236.66;;;16.87;61.56
58070;BME280;43863;52.256;21.048;2022-09-13T07:41:50;100230.69;;;16.85;61.18
58070;BME280;43863;52.256;21.048;2022-09-13T07:44:19;100236.38;;;16.95;61.15
58070;BME280;43863;52.256;21.048;2022-09-13T07:46:47;100228.00;;;17.03;61.36
58070;BME280;43863;52.256;21.048;2022-09-13T07:49:16;100236.09;;;17.22;61.00
58070;BME280;43863;52.256;21.048;2022-09-13T07:51:45;100234.06;;;17.36;60.61
58070;BME280;43863;52.256;21.048;2022-09-13T07:54:15;100242.22;;;17.47;60.40
58070;BME280;43863;52.256;21.048;2022-09-13T07:56:44;100239.06;;;17.50;60.05
58070;BME280;43863;52.256;21.048;2022-09-13T07:59:14;100239.06;;;17.50;60.15
58070;BME280;43863;52.256;21.048;2022-09-13T08:01:44;100227.50;;;17.68;60.15
58070;BME280;43863;52.256;21.048;2022-09-13T08:04:16;100234.50;;;17.88;59.82
58070;BME280;43863;52.256;21.048;2022-09-13T08:06:45;100234.78;;;17.98;59.86
58070;BME280;43863;52.256;21.048;2022-09-13T08:09:14;100235.91;;;18.21;59.29
58070;BME280;43863;52.256;21.048;2022-09-13T08:11:45;100231.63;;;18.31;58.87
58070;BME280;43863;52.256;21.048;2022-09-13T08:14:15;100223.34;;;18.45;59.08
58070;BME280;43863;52.256;21.048;2022-09-13T08:16:44;100221.25;;;18.58;58.29
58070;BME280;43863;52.256;21.048;2022-09-13T08:19:14;100214.13;;;18.64;58.29
58070;BME280;43863;52.256;21.048;2022-09-13T08:21:43;100212.38;;;18.58;58.15
58070;BME280;43863;52.256;21.048;2022-09-13T08:24:17;100214.69;;;18.66;57.92
58070;BME280;43863;52.256;21.048;2022-09-13T08:26:45;100211.06;;;18.72;58.15
58070;BME280;43863;52.256;21.048;2022-09-13T08:29:14;100210.78;;;18.80;57.88
58070;BME280;43863;52.256;21.048;2022-09-13T08:31:43;100207.94;;;18.87;58.24
58070;BME280;43863;52.256;21.048;2022-09-13T08:34:12;100204.22;;;19.00;57.92
58070;BME280;43863;52.256;21.048;2022-09-13T08:36:42;100207.13;;;19.10;57.45
58070;BME280;43863;52.256;21.048;2022-09-13T08:39:10;100204.22;;;19.12;57.05
58070;BME280;43863;52.256;21.048;2022-09-13T08:44:34;100202.91;;;19.26;56.70
58070;BME280;43863;52.256;21.048;2022-09-13T08:47:34;100203.84;;;19.31;56.73
58070;BME280;43863;52.256;21.048;2022-09-13T08:50:10;100207.38;;;19.49;56.74
58070;BME280;43863;52.256;21.048;2022-09-13T08:53:26;100203.50;;;19.68;56.06
58070;BME280;43863;52.256;21.048;2022-09-13T09:01:07;100203.75;;;19.95;55.85
58070;BME280;43863;52.256;21.048;2022-09-13T09:03:46;100200.28;;;20.12;55.57
58070;BME280;43863;52.256;21.048;2022-09-13T09:06:19;100196.75;;;20.28;54.42
58070;BME280;43863;52.256;21.048;2022-09-13T09:08:53;100198.88;;;20.43;53.94
58070;BME280;43863;52.256;21.048;2022-09-13T09:11:34;100191.47;;;20.50;53.37
58070;BME280;43863;52.256;21.048;2022-09-13T09:17:02;100187.47;;;20.70;52.32
58070;BME280;43863;52.256;21.048;2022-09-13T09:19:35;100188.44;;;20.80;51.87
58070;BME280;43863;52.256;21.048;2022-09-13T09:22:10;100181.78;;;20.88;51.57
58070;BME280;43863;52.256;21.048;2022-09-13T09:24:44;100180.66;;;20.84;51.00
58070;BME280;43863;52.256;21.048;2022-09-13T09:27:16;100174.84;;;20.92;51.43
58070;BME280;43863;52.256;21.048;2022-09-13T09:29:47;100177.13;;;21.00;51.23
58070;BME280;43863;52.256;21.048;2022-09-13T09:37:38;100168.81;;;21.29;49.38
58070;BME280;43863;52.256;21.048;2022-09-13T09:40:13;100163.31;;;21.41;49.30
58070;BME280;43863;52.256;21.048;2022-09-13T09:42:43;100166.38;;;21.49;48.69
58070;BME280;43863;52.256;21.048;2022-09-13T09:45:27;100163.31;;;21.63;47.87
58070;BME280;43863;52.256;21.048;2022-09-13T09:47:59;100160.59;;;21.63;48.11
58070;BME280;43863;52.256;21.048;2022-09-13T09:50:35;100157.41;;;21.71;47.71
58070;BME280;43863;52.256;21.048;2022-09-13T09:53:09;100152.59;;;21.73;47.30
58070;BME280;43863;52.256;21.048;2022-09-13T09:55:46;100155.03;;;21.74;45.96
58070;BME280;43863;52.256;21.048;2022-09-13T09:58:17;100140.19;;;21.77;45.65
58070;BME280;43863;52.256;21.048;2022-09-13T10:01:02;100141.81;;;21.78;45.19
58070;BME280;43863;52.256;21.048;2022-09-13T10:03:38;100137.50;;;21.77;44.57
58070;BME280;43863;52.256;21.048;2022-09-13T10:06:19;100131.41;;;21.65;44.79
58070;BME280;43863;52.256;21.048;2022-09-13T10:09:00;100126.13;;;21.75;45.23
58070;BME280;43863;52.256;21.048;2022-09-13T10:11:49;100122.75;;;21.90;43.95
58070;BME280;43863;52.256;21.048;2022-09-13T10:17:26;100122.09;;;22.10;45.86
58070;BME280;43863;52.256;21.048;2022-09-13T10:22:27;100112.13;;;22.15;45.38
58070;BME280;43863;52.256;21.048;2022-09-13T10:25:21;100112.28;;;22.03;45.68
58070;BME280;43863;52.256;21.048;2022-09-13T10:27:57;100113.66;;;22.01;45.58
58070;BME280;43863;52.256;21.048;2022-09-13T10:30:36;100114.47;;;22.01;45.52
58070;BME280;43863;52.256;21.048;2022-09-13T10:33:07;100111.53;;;22.08;45.70
58070;BME280;43863;52.256;21.048;2022-09-13T10:35:49;100105.00;;;22.04;45.44
58070;BME280;43863;52.256;21.048;2022-09-13T10:38:30;100101.66;;;22.19;45.29
58070;BME280;43863;52.256;21.048;2022-09-13T10:41:02;100100.22;;;22.16;44.43
58070;BME280;43863;52.256;21.048;2022-09-13T10:43:32;100095.28;;;22.08;43.54
58070;BME280;43863;52.256;21.048;2022-09-13T10:46:03;100092.25;;;21.99;43.22
58070;BME280;43863;52.256;21.048;2022-09-13T10:48:44;100092.88;;;22.07;43.15
58070;BME280;43863;52.256;21.048;2022-09-13T10:51:28;100082.44;;;22.20;43.18
58070;BME280;43863;52.256;21.048;2022-09-13T10:54:19;100081.19;;;22.38;43.51
58070;BME280;43863;52.256;21.048;2022-09-13T10:56:50;100080.19;;;22.49;44.15
58070;BME280;43863;52.256;21.048;2022-09-13T10:59:25;100079.22;;;22.66;44.76
58070;BME280;43863;52.256;21.048;2022-09-13T11:11:08;100072.13;;;22.65;43.38
58070;BME280;43863;52.256;21.048;2022-09-13T11:14:24;100067.03;;;22.74;42.98
58070;BME280;43863;52.256;21.048;2022-09-13T11:17:29;100074.69;;;22.87;42.98
58070;BME280;43863;52.256;21.048;2022-09-13T11:25:29;100060.84;;;22.78;41.96
58070;BME280;43863;52.256;21.048;2022-09-13T11:28:24;100059.78;;;22.84;41.93
58070;BME280;43863;52.256;21.048;2022-09-13T11:34:04;100059.59;;;22.96;41.91
58070;BME280;43863;52.256;21.048;2022-09-13T11:42:11;100051.50;;;23.01;42.16
58070;BME280;43863;52.256;21.048;2022-09-13T11:55:37;100027.66;;;23.19;41.63
58070;BME280;43863;52.256;21.048;2022-09-13T11:58:18;100014.13;;;23.19;41.80
58070;BME280;43863;52.256;21.048;2022-09-13T12:00:52;100013.31;;;23.23;41.90
58070;BME280;43863;52.256;21.048;2022-09-13T12:03:43;100004.38;;;23.23;41.82
58070;BME280;43863;52.256;21.048;2022-09-13T12:06:28;99997.88;;;23.13;41.85
58070;BME280;43863;52.256;21.048;2022-09-13T12:09:05;99998.69;;;23.24;41.95
58070;BME280;43863;52.256;21.048;2022-09-13T12:11:35;99993.28;;;23.34;42.22
58070;BME280;43863;52.256;21.048;2022-09-13T12:14:11;99984.34;;;23.39;42.25
58070;BME280;43863;52.256;21.048;2022-09-13T12:16:43;99980.03;;;23.43;42.32
58070;BME280;43863;52.256;21.048;2022-09-13T12:19:45;99980.81;;;23.38;42.07
58070;BME280;43863;52.256;21.048;2022-09-13T12:22:16;99978.66;;;23.25;42.23
58070;BME280;43863;52.256;21.048;2022-09-13T12:24:51;99969.69;;;23.25;42.28
58070;BME280;43863;52.256;21.048;2022-09-13T12:27:53;99959.38;;;23.22;42.37
58070;BME280;43863;52.256;21.048;2022-09-13T12:30:29;99958.84;;;23.04;42.46
58070;BME280;43863;52.256;21.048;2022-09-13T12:33:00;99950.88;;;22.77;42.86
58070;BME280;43863;52.256;21.048;2022-09-13T12:36:04;99942.75;;;22.72;43.61
58070;BME280;43863;52.256;21.048;2022-09-13T12:53:23;99946.88;;;21.79;46.40
58070;BME280;43863;52.256;21.048;2022-09-13T12:59:23;99930.56;;;21.64;46.76
58070;BME280;43863;52.256;21.048;2022-09-13T13:01:52;99924.59;;;21.57;47.15
58070;BME280;43863;52.256;21.048;2022-09-13T13:07:01;99931.03;;;21.56;47.63
58070;BME280;43863;52.256;21.048;2022-09-13T13:09:43;99933.50;;;21.57;47.76
58070;BME280;43863;52.256;21.048;2022-09-13T13:14:57;99916.53;;;21.35;48.16
58070;BME280;43863;52.256;21.048;2022-09-13T13:41:54;99882.09;;;20.88;50.66
58070;BME280;43863;52.256;21.048;2022-09-13T13:57:37;99876.69;;;20.88;51.03
58070;BME280;43863;52.256;21.048;2022-09-13T14:00:22;99879.25;;;20.73;51.52
58070;BME280;43863;52.256;21.048;2022-09-13T14:19:44;99851.28;;;20.84;52.50
58070;BME280;43863;52.256;21.048;2022-09-13T14:22:23;99846.47;;;20.91;52.62
58070;BME280;43863;52.256;21.048;2022-09-13T14:27:46;99844.34;;;20.93;52.75
58070;BME280;43863;52.256;21.048;2022-09-13T14:30:39;99840.28;;;20.90;53.07
58070;BME280;43863;52.256;21.048;2022-09-13T14:33:33;99839.47;;;20.90;52.95
58070;BME280;43863;52.256;21.048;2022-09-13T14:36:13;99832.19;;;20.90;53.07
58070;BME280;43863;52.256;21.048;2022-09-13T14:38:56;99835.50;;;20.98;53.03
58070;BME280;43863;52.256;21.048;2022-09-13T14:41:42;99835.56;;;21.08;53.51
58070;BME280;43863;52.256;21.048;2022-09-13T14:44:19;99827.50;;;21.13;53.33
58070;BME280;43863;52.256;21.048;2022-09-13T14:47:06;99814.03;;;21.18;52.91
58070;BME280;43863;52.256;21.048;2022-09-13T14:49:41;99811.34;;;21.18;52.82
58070;BME280;43863;52.256;21.048;2022-09-13T14:52:23;99802.63;;;21.11;52.75
58070;BME280;43863;52.256;21.048;2022-09-13T14:54:55;99810.16;;;21.04;52.74
58070;BME280;43863;52.256;21.048;2022-09-13T14:57:33;99803.84;;;20.93;52.96
58070;BME280;43863;52.256;21.048;2022-09-13T15:02:47;99802.34;;;20.75;52.93
58070;BME280;43863;52.256;21.048;2022-09-13T15:05:24;99800.13;;;20.67;53.02
58070;BME280;43863;52.256;21.048;2022-09-13T15:07:57;99799.31;;;20.66;53.16
58070;BME280;43863;52.256;21.048;2022-09-13T15:10:31;99786.09;;;20.65;53.31
58070;BME280;43863;52.256;21.048;2022-09-13T15:18:05;99786.25;;;20.53;53.99
58070;BME280;43863;52.256;21.048;2022-09-13T15:20:51;99791.94;;;20.57;54.19
58070;BME280;43863;52.256;21.048;2022-09-13T15:23:28;99786.75;;;20.50;54.54
58070;BME280;43863;52.256;21.048;2022-09-13T15:26:20;99787.75;;;20.44;54.36
58070;BME280;43863;52.256;21.048;2022-09-13T15:28:56;99781.78;;;20.42;54.48
58070;BME280;43863;52.256;21.048;2022-09-13T15:31:27;99777.16;;;20.37;54.72
58070;BME280;43863;52.256;21.048;2022-09-13T15:34:12;99779.81;;;20.32;54.59
58070;BME280;43863;52.256;21.048;2022-09-13T15:39:44;99781.88;;;20.25;55.05
58070;BME280;43863;52.256;21.048;2022-09-13T15:42:16;99772.13;;;20.19;55.56
58070;BME280;43863;52.256;21.048;2022-09-13T15:44:44;99775.09;;;20.17;55.53
58070;BME280;43863;52.256;21.048;2022-09-13T15:47:17;99776.69;;;20.18;55.72
58070;BME280;43863;52.256;21.048;2022-09-13T15:49:48;99775.91;;;20.18;55.75
58070;BME280;43863;52.256;21.048;2022-09-13T15:52:18;99768.84;;;20.17;55.87
58070;BME280;43863;52.256;21.048;2022-09-13T15:54:48;99773.19;;;20.18;55.80
58070;BME280;43863;52.256;21.048;2022-09-13T15:57:20;99770.19;;;20.14;56.04
58070;BME280;43863;52.256;21.048;2022-09-13T15:59:49;99779.03;;;20.10;55.91
58070;BME280;43863;52.256;21.048;2022-09-13T16:04:49;99763.66;;;20.10;55.93
58070;BME280;43863;52.256;21.048;2022-09-13T16:07:17;99756.97;;;20.13;56.16
58070;BME280;43863;52.256;21.048;2022-09-13T16:09:46;99745.06;;;20.09;56.08
58070;BME280;43863;52.256;21.048;2022-09-13T16:12:20;99749.63;;;20.08;56.55
58070;BME280;43863;52.256;21.048;2022-09-13T16:14:52;99747.41;;;20.00;56.65
58070;BME280;43863;52.256;21.048;2022-09-13T16:17:23;99744.88;;;19.93;57.00
58070;BME280;43863;52.256;21.048;2022-09-13T16:19:52;99742.16;;;19.88;57.32
58070;BME280;43863;52.256;21.048;2022-09-13T16:22:20;99738.00;;;19.81;57.32
58070;BME280;43863;52.256;21.048;2022-09-13T16:25:01;99728.72;;;19.71;57.42
58070;BME280;43863;52.256;21.048;2022-09-13T16:27:29;99733.25;;;19.66;57.94
58070;BME280;43863;52.256;21.048;2022-09-13T16:30:00;99727.53;;;19.62;57.56
58070;BME280;43863;52.256;21.048;2022-09-13T16:32:28;99725.06;;;19.61;57.97
58070;BME280;43863;52.256;21.048;2022-09-13T16:34:56;99729.91;;;19.59;58.33
58070;BME280;43863;52.256;21.048;2022-09-13T16:37:24;99729.66;;;19.60;58.29
58070;BME280;43863;52.256;21.048;2022-09-13T16:39:55;99721.25;;;19.57;58.24
58070;BME280;43863;52.256;21.048;2022-09-13T16:42:24;99725.03;;;19.55;58.84